Caples, WA

6:38 PM PST on February 19, 2017 (GMT -0800)
| | Change Station

Elev -9999 ft 0.00 °N, 0.00 °E | Updated 0 second ago

Overcast
Overcast
°F
Feels Like °F
N
Wind Variable Wind from North
Gusts mph

Today
High -- | Low -- °F
--% Chance of Precip.
Yesterday
High -- | Low -- °F
Precip. -- in
Pressure 29.62 in
Visibility 10.0 miles
Clouds Scattered Clouds 700 ft
Mostly Cloudy 1600 ft
Overcast 2300 ft
Dew Point Not available.
Humidity Not available.
Rainfall --
Snow Depth Not available.
7:06 AM 5:43 PM
Last Quarter, 38% visible
SPECI KSPB 200230Z AUTO 00000KT 10SM -RA SCT007 BKN016 OVC023 06/05 A2962 RMK AO2 P0001 T00560050
Pressure 29.62 in
Visibility 10.0 miles
Clouds Scattered Clouds 700 ft
Mostly Cloudy 1600 ft
Overcast 2300 ft
Dew Point Not available.
Humidity Not available.
Rainfall --
Snow Depth Not available.
7:06 AM 5:43 PM
Last Quarter, 38% visible
SPECI KSPB 200230Z AUTO 00000KT 10SM -RA SCT007 BKN016 OVC023 06/05 A2962 RMK AO2 P0001 T00560050

Get Your Daily Forecast Email!

Thanks for signing up!

Be on the lookout for a verification email in your inbox.

You'll start receiving the daily forecast at 8 AM.

×

10-Day Weather Forecast

Almanac

Astronomy

Feb. 19, 2017 Rise Set
Actual Time
Civil Twilight
Nautical Twilight
Astronomical Twilight
Moon
Length of Visible Light
Length of Day
Tomorrow will be .
, % of the Moon is Illuminated

Today's Extremes

State Highs State Lows

Community

WunderPhotos

Upload Photos

1,962,540 photos uploaded!

WunderBlog® & News

Nearby

Air Quality

  Air Quality AQ Index Pollutant
Not available.

Snow Depth

Station Depth Elevation

Earthquake Activity

City Distance Mag. Time & Date
Minimum magnitude displayed is 2.5.

Coastal Water Temperatures

Place Temperature

Stations

Nearby Weather Stations

Station Location Temp. Windchill Dew Point Humidity Wind Precip. Elev Updated Type
                   

Watches & Warnings

Small Craft for Rough Bar Advisory
Issued: 1:29 PM PST Feb. 19, 2017 – National Weather Service

... Small Craft Advisory for rough bar now in effect from 10 PM
this evening to 2 PM PST Monday...

* in the Main Channel...

* general seas... around 10 ft.

* First Ebb... around 1130 PM tonight. Seas near 12 ft.

* Second Ebb... around 1215 PM Sunday. Seas near 10 ft.

Precautionary/preparedness actions...

A Small Craft Advisory for rough bar means that wave conditions
are expected to be hazardous to small craft in or near Harbor
entrances.